createdAt,value
2023-04-14T00:00:09.962Z,99.97
2023-04-14T00:02:37.624Z,99.24
2023-04-14T00:05:05.987Z,97.29
2023-04-14T00:07:34.804Z,98.20
2023-04-14T00:10:02.411Z,98.65
2023-04-14T00:12:30.034Z,99.29
2023-04-14T00:14:57.486Z,98.80
2023-04-14T00:17:25.071Z,98.45
2023-04-14T00:19:52.615Z,97.82
2023-04-14T00:22:21.792Z,97.87
2023-04-14T00:24:50.768Z,98.72
2023-04-14T00:27:18.292Z,98.13
2023-04-14T00:29:45.882Z,98.22
2023-04-14T00:32:13.327Z,98.26
2023-04-14T00:34:40.786Z,99.08
2023-04-14T00:37:08.238Z,99.29
2023-04-14T00:39:36.291Z,98.43
2023-04-14T00:42:05.254Z,96.31
2023-04-14T00:44:32.798Z,96.02
2023-04-14T00:47:01.976Z,95.00
2023-04-14T00:49:29.496Z,95.02
2023-04-14T00:51:57.475Z,94.68
2023-04-14T00:54:26.448Z,95.39
2023-04-14T00:56:54.786Z,95.39
2023-04-14T00:59:23.864Z,96.00
2023-04-14T01:01:51.609Z,96.59
2023-04-14T01:04:19.331Z,96.90
2023-04-14T01:06:46.793Z,96.56
2023-04-14T01:09:15.842Z,95.76
2023-04-14T01:11:49.434Z,95.87
2023-04-14T01:14:32.118Z,97.00
2023-04-14T01:17:02.623Z,97.40
2023-04-14T01:19:43.918Z,97.08
2023-04-14T01:22:12.686Z,97.20
2023-04-14T01:24:57.684Z,97.33
2023-04-14T01:27:35.706Z,97.39
2023-04-14T01:30:23.150Z,97.78
2023-04-14T01:32:54.356Z,98.02
2023-04-14T01:35:27.169Z,96.53
2023-04-14T01:38:00.796Z,95.30
2023-04-14T01:40:29.298Z,95.11
2023-04-14T01:42:59.600Z,95.49
2023-04-14T01:45:30.095Z,96.65
2023-04-14T01:47:59.601Z,97.19
2023-04-14T01:50:28.107Z,97.54
2023-04-14T01:52:55.892Z,98.36
2023-04-14T01:55:24.734Z,98.83
2023-04-14T01:57:53.891Z,99.13
2023-04-14T02:00:22.225Z,99.02
2023-04-14T02:02:52.186Z,97.63
2023-04-14T02:05:22.857Z,97.54
2023-04-14T02:07:52.580Z,97.77
2023-04-14T02:10:21.540Z,97.60
2023-04-14T02:12:50.527Z,98.04
2023-04-14T02:15:18.604Z,97.78
2023-04-14T02:17:48.131Z,97.77
2023-04-14T02:20:15.926Z,97.73
2023-04-14T02:22:44.763Z,97.24
2023-04-14T02:25:12.246Z,97.44
2023-04-14T02:27:42.372Z,96.64
2023-04-14T02:30:13.024Z,97.70
2023-04-14T02:32:41.968Z,97.63
2023-04-14T02:35:13.499Z,98.02
2023-04-14T02:37:42.904Z,98.77
2023-04-14T02:40:15.769Z,99.14
2023-04-14T02:42:46.518Z,98.96
2023-04-14T02:45:19.888Z,99.10
2023-04-14T02:47:49.011Z,99.29
2023-04-14T02:50:17.750Z,99.54
2023-04-14T02:52:47.614Z,99.96
2023-04-14T02:55:16.507Z,99.91
2023-04-14T02:57:43.992Z,100.00
2023-04-14T03:00:12.800Z,100.00
2023-04-14T03:02:40.907Z,100.00
2023-04-14T03:05:09.544Z,100.00
2023-04-14T03:07:37.476Z,100.00
2023-04-14T03:10:05.601Z,100.00
2023-04-14T03:12:36.085Z,100.00
2023-04-14T03:15:03.871Z,99.26
2023-04-14T03:17:32.416Z,100.00
2023-04-14T03:20:00.220Z,100.00
2023-04-14T03:22:28.538Z,100.00
2023-04-14T03:24:58.726Z,100.00
2023-04-14T03:27:27.882Z,100.00
2023-04-14T03:30:03.162Z,100.00
2023-04-14T03:32:35.575Z,100.00
2023-04-14T03:35:03.341Z,100.00
2023-04-14T03:37:32.675Z,100.00
2023-04-14T03:40:01.651Z,100.00
2023-04-14T03:42:30.291Z,100.00
2023-04-14T03:45:00.463Z,100.00
2023-04-14T03:47:31.659Z,100.00
2023-04-14T03:50:01.284Z,100.00
2023-04-14T03:52:29.580Z,100.00
2023-04-14T03:54:58.956Z,100.00
2023-04-14T03:57:29.129Z,100.00
2023-04-14T03:59:56.790Z,100.00
2023-04-14T04:02:27.177Z,100.00
2023-04-14T04:04:55.665Z,100.00
2023-04-14T04:07:23.615Z,100.00
2023-04-14T04:09:51.803Z,100.00
2023-04-14T04:12:20.880Z,100.00
2023-04-14T04:14:48.554Z,100.00
2023-04-14T04:17:19.018Z,100.00
2023-04-14T04:19:48.508Z,100.00
2023-04-14T04:22:18.346Z,100.00
2023-04-14T04:24:45.934Z,100.00
2023-04-14T04:27:26.583Z,100.00
2023-04-14T04:29:55.657Z,100.00
2023-04-14T04:32:23.558Z,100.00
2023-04-14T04:34:54.062Z,100.00
2023-04-14T04:37:22.539Z,100.00
2023-04-14T04:39:50.078Z,100.00
2023-04-14T04:42:17.535Z,100.00
2023-04-14T04:44:45.212Z,100.00
2023-04-14T04:47:13.893Z,100.00
2023-04-14T04:49:41.346Z,100.00
2023-04-14T04:52:10.316Z,100.00
2023-04-14T04:54:37.766Z,100.00
2023-04-14T04:57:05.204Z,100.00
2023-04-14T04:59:32.992Z,100.00
2023-04-14T05:02:00.850Z,100.00
2023-04-14T05:04:28.405Z,100.00
2023-04-14T05:06:55.862Z,100.00
2023-04-14T05:09:24.635Z,100.00
2023-04-14T05:11:52.046Z,99.50
2023-04-14T05:14:19.514Z,98.61
2023-04-14T05:16:47.088Z,99.73
2023-04-14T05:19:14.947Z,100.00
2023-04-14T05:21:42.402Z,100.00
2023-04-14T05:24:09.864Z,100.00
2023-04-14T05:26:57.694Z,100.00
2023-04-14T05:29:26.020Z,100.00
2023-04-14T05:31:53.456Z,100.00
2023-04-14T05:34:20.924Z,100.00
2023-04-14T05:36:48.416Z,100.00
2023-04-14T05:39:16.449Z,100.00
2023-04-14T05:41:45.400Z,100.00
2023-04-14T05:44:12.858Z,100.00
2023-04-14T05:46:41.226Z,100.00
2023-04-14T05:49:08.788Z,99.55
2023-04-14T05:51:36.315Z,99.35
2023-04-14T05:54:03.888Z,99.02
2023-04-14T05:56:31.754Z,100.00
2023-04-14T05:59:00.513Z,99.47
2023-04-14T06:01:28.033Z,99.52
2023-04-14T06:03:55.767Z,99.97
2023-04-14T06:06:23.491Z,99.15
2023-04-14T06:08:50.976Z,99.06
2023-04-14T06:11:18.464Z,98.77
2023-04-14T06:13:45.918Z,97.44
2023-04-14T06:16:14.769Z,97.81
2023-04-14T06:18:42.276Z,97.22
2023-04-14T06:21:09.814Z,96.88
2023-04-14T06:23:37.253Z,95.79
2023-04-14T06:26:05.487Z,96.38
2023-04-14T06:28:32.964Z,95.88
2023-04-14T06:31:01.271Z,95.75
2023-04-14T06:33:30.022Z,96.53
2023-04-14T06:35:57.516Z,97.17
2023-04-14T06:38:25.209Z,98.19
2023-04-14T06:40:53.357Z,98.96
2023-04-14T06:43:21.118Z,99.27
2023-04-14T06:45:50.364Z,100.00
2023-04-14T06:48:17.881Z,100.00
2023-04-14T06:50:53.786Z,100.00
2023-04-14T06:53:21.673Z,100.00
2023-04-14T06:55:50.359Z,100.00
2023-04-14T06:58:17.878Z,100.00
2023-04-14T07:00:45.330Z,100.00
2023-04-14T07:03:12.818Z,100.00
2023-04-14T07:05:40.262Z,100.00
2023-04-14T07:08:09.367Z,100.00
2023-04-14T07:10:36.804Z,100.00
2023-04-14T07:13:04.427Z,100.00
2023-04-14T07:15:31.911Z,100.00
2023-04-14T07:18:00.125Z,100.00
2023-04-14T07:20:27.975Z,100.00
2023-04-14T07:22:55.537Z,100.00
2023-04-14T07:25:24.311Z,100.00
2023-04-14T07:28:02.724Z,97.00
2023-04-14T07:30:31.475Z,96.76
2023-04-14T07:32:59.066Z,96.16
2023-04-14T07:35:26.795Z,96.82
2023-04-14T07:37:54.245Z,95.03
2023-04-14T07:40:21.752Z,94.12
2023-04-14T07:42:50.508Z,95.30
2023-04-14T07:45:18.412Z,96.48
2023-04-14T07:47:45.859Z,96.13
2023-04-14T07:50:13.358Z,97.46
2023-04-14T07:52:41.162Z,96.16
2023-04-14T07:55:08.757Z,96.78
2023-04-14T07:57:36.359Z,95.59
2023-04-14T08:00:05.823Z,94.77
2023-04-14T08:02:33.662Z,93.57
2023-04-14T08:05:01.241Z,95.24
2023-04-14T08:07:29.459Z,95.39
2023-04-14T08:09:56.959Z,94.42
2023-04-14T08:12:25.073Z,94.38
2023-04-14T08:14:53.396Z,91.67
2023-04-14T08:17:22.559Z,92.35
2023-04-14T08:19:50.045Z,91.84
2023-04-14T08:22:18.382Z,90.10
2023-04-14T08:24:45.886Z,90.21
2023-04-14T08:27:13.361Z,89.19
2023-04-14T08:29:40.822Z,88.08
2023-04-14T08:32:08.340Z,88.70
2023-04-14T08:34:37.531Z,89.94
2023-04-14T08:37:04.996Z,91.88
2023-04-14T08:39:32.440Z,90.65
2023-04-14T08:41:59.906Z,90.26
2023-04-14T08:44:27.359Z,90.84
2023-04-14T08:46:56.471Z,89.34
2023-04-14T08:49:29.647Z,90.66
2023-04-14T08:51:59.734Z,89.88
2023-04-14T08:54:28.434Z,88.51
2023-04-14T08:56:58.507Z,87.90
2023-04-14T08:59:26.827Z,87.53
2023-04-14T09:01:55.211Z,88.74
2023-04-14T09:04:23.275Z,87.99
2023-04-14T09:06:51.519Z,88.40
2023-04-14T09:09:20.435Z,88.52
2023-04-14T09:11:48.327Z,89.25
2023-04-14T09:14:16.310Z,90.16
2023-04-14T09:16:43.801Z,91.05
2023-04-14T09:19:11.861Z,90.37
2023-04-14T09:21:53.997Z,90.57
2023-04-14T09:24:29.414Z,90.42
2023-04-14T09:26:59.354Z,90.01
2023-04-14T09:29:27.326Z,89.05
2023-04-14T09:31:55.063Z,87.33
2023-04-14T09:34:22.969Z,86.21
2023-04-14T09:37:05.413Z,86.71
2023-04-14T09:39:35.069Z,86.83
2023-04-14T09:42:03.614Z,86.40
2023-04-14T09:44:31.310Z,86.77
2023-04-14T09:47:02.382Z,85.92
2023-04-14T09:49:30.202Z,86.18
2023-04-14T09:52:04.700Z,85.42
2023-04-14T09:54:33.942Z,84.71
2023-04-14T09:57:01.606Z,85.00
2023-04-14T09:59:33.977Z,84.88
2023-04-14T10:02:04.414Z,83.92
2023-04-14T10:04:32.113Z,83.82
2023-04-14T10:06:59.749Z,83.62
2023-04-14T10:09:28.744Z,83.82
2023-04-14T10:12:10.837Z,83.69
2023-04-14T10:14:38.779Z,81.19
2023-04-14T10:17:06.555Z,81.53
2023-04-14T10:19:34.108Z,80.24
2023-04-14T10:22:01.844Z,80.35
2023-04-14T10:24:29.352Z,80.00
2023-04-14T10:26:56.873Z,78.52
2023-04-14T10:29:25.904Z,76.60
2023-04-14T10:31:56.027Z,76.30
2023-04-14T10:34:24.287Z,75.44
2023-04-14T10:36:51.771Z,75.56
2023-04-14T10:39:24.578Z,74.61
2023-04-14T10:41:53.441Z,74.42
2023-04-14T10:44:24.268Z,73.95
2023-04-14T10:46:54.050Z,73.99
2023-04-14T10:49:25.085Z,73.29
2023-04-14T10:51:52.627Z,72.12
2023-04-14T10:54:20.103Z,72.71
2023-04-14T10:57:12.296Z,70.15
2023-04-14T10:59:42.269Z,69.21
2023-04-14T11:02:28.252Z,68.81
2023-04-14T11:05:04.733Z,67.38
2023-04-14T11:07:33.351Z,68.87
2023-04-14T11:10:05.015Z,66.82
2023-04-14T11:12:32.634Z,64.89
2023-04-14T11:15:03.733Z,65.74
2023-04-14T11:17:33.965Z,64.56
2023-04-14T11:20:01.686Z,61.27
2023-04-14T11:22:41.872Z,59.41
2023-04-14T11:25:12.430Z,60.53
2023-04-14T11:27:40.901Z,59.70
2023-04-14T11:30:10.035Z,57.46
2023-04-14T11:32:50.128Z,59.00
2023-04-14T11:35:18.462Z,57.04
2023-04-14T11:37:46.972Z,55.05
2023-04-14T11:40:15.887Z,54.03
2023-04-14T11:42:46.789Z,53.85
2023-04-14T11:45:16.694Z,53.44
2023-04-14T11:48:03.588Z,52.27
2023-04-14T11:50:33.438Z,53.58
2023-04-14T11:53:02.575Z,54.26
2023-04-14T11:55:30.729Z,54.65
2023-04-14T11:57:59.139Z,55.69
2023-04-14T12:00:27.943Z,55.14
2023-04-14T12:02:55.607Z,54.69
2023-04-14T12:05:30.242Z,52.96
2023-04-14T12:07:59.989Z,52.41
2023-04-14T12:10:27.985Z,51.41
2023-04-14T12:13:00.824Z,51.28
2023-04-14T12:15:28.556Z,51.12
2023-04-14T12:17:57.065Z,50.76
2023-04-14T12:20:26.077Z,51.43
2023-04-14T12:22:53.709Z,47.71
2023-04-14T12:25:21.159Z,49.25
2023-04-14T12:27:54.459Z,48.26
2023-04-14T12:30:24.352Z,49.00
2023-04-14T12:32:52.886Z,50.31
2023-04-14T12:35:23.279Z,45.83
2023-04-14T12:37:53.235Z,46.48
2023-04-14T12:40:38.601Z,45.85
2023-04-14T12:43:06.154Z,45.83
2023-04-14T12:45:43.574Z,44.55
2023-04-14T12:48:12.292Z,45.69
2023-04-14T12:50:40.265Z,45.66
2023-04-14T12:53:27.330Z,45.39
2023-04-14T12:56:08.859Z,45.54
2023-04-14T12:58:37.716Z,46.70
2023-04-14T13:01:06.547Z,46.84
2023-04-14T13:03:46.195Z,46.34
2023-04-14T13:06:16.239Z,47.67
2023-04-14T13:08:46.009Z,42.74
2023-04-14T13:11:13.764Z,45.98
2023-04-14T13:13:41.292Z,45.42
2023-04-14T13:16:15.283Z,44.67
2023-04-14T13:18:44.149Z,44.23
2023-04-14T13:21:11.982Z,42.54
2023-04-14T13:23:39.535Z,43.19
2023-04-14T13:26:08.354Z,45.03
2023-04-14T13:28:36.470Z,42.19
2023-04-14T13:31:04.025Z,43.30
2023-04-14T13:33:33.932Z,43.57
2023-04-14T13:36:02.588Z,43.58
2023-04-14T13:38:30.847Z,42.37
2023-04-14T13:40:58.354Z,42.45
2023-04-14T13:43:27.138Z,42.08
2023-04-14T13:45:57.786Z,42.60
2023-04-14T13:48:25.758Z,40.63
2023-04-14T13:50:54.214Z,42.11
2023-04-14T13:53:21.723Z,41.08
2023-04-14T13:55:49.160Z,41.49
2023-04-14T13:58:16.727Z,38.55
2023-04-14T14:00:45.522Z,40.86
2023-04-14T14:03:13.067Z,40.85
2023-04-14T14:05:40.703Z,40.74
2023-04-14T14:08:08.186Z,40.93
2023-04-14T14:10:35.653Z,39.12
2023-04-14T14:13:03.576Z,38.36
2023-04-14T14:15:31.292Z,39.32
2023-04-14T14:18:00.259Z,39.24
2023-04-14T14:20:27.780Z,39.81
2023-04-14T14:22:55.318Z,39.23
2023-04-14T14:25:22.792Z,38.51
2023-04-14T14:27:51.818Z,37.45
2023-04-14T14:30:19.505Z,38.96
2023-04-14T14:32:47.088Z,38.54
2023-04-14T14:35:16.465Z,37.84
2023-04-14T14:37:45.550Z,38.13
2023-04-14T14:40:13.820Z,37.21
2023-04-14T14:42:41.288Z,38.11
2023-04-14T14:45:10.115Z,37.45
2023-04-14T14:47:38.871Z,35.44
2023-04-14T14:50:09.056Z,35.55
2023-04-14T14:52:37.812Z,37.67
2023-04-14T14:55:06.200Z,38.70
2023-04-14T14:57:33.666Z,37.55
2023-04-14T15:00:01.122Z,37.00
2023-04-14T15:02:28.736Z,37.16
2023-04-14T15:04:56.533Z,37.25
2023-04-14T15:07:23.957Z,35.46
2023-04-14T15:09:52.980Z,36.21
2023-04-14T15:12:35.538Z,36.34
2023-04-14T15:15:03.059Z,36.64
2023-04-14T15:17:31.301Z,40.07
2023-04-14T15:20:03.480Z,39.84
2023-04-14T15:22:30.936Z,36.78
2023-04-14T15:24:59.721Z,36.91
2023-04-14T15:27:27.200Z,35.92
2023-04-14T15:29:54.861Z,35.81
2023-04-14T15:32:25.265Z,35.13
2023-04-14T15:34:52.901Z,36.01
2023-04-14T15:37:20.512Z,36.23
2023-04-14T15:39:48.061Z,37.37
2023-04-14T15:42:16.892Z,37.30
2023-04-14T15:44:44.436Z,36.49
2023-04-14T15:47:11.988Z,36.82
2023-04-14T15:49:39.455Z,36.82
2023-04-14T15:52:06.932Z,36.86
2023-04-14T15:54:34.397Z,35.91
2023-04-14T15:57:02.228Z,36.11
2023-04-14T15:59:31.207Z,36.91
2023-04-14T16:02:00.830Z,36.66
2023-04-14T16:04:28.489Z,36.25
2023-04-14T16:06:56.317Z,36.37
2023-04-14T16:09:23.953Z,37.37
2023-04-14T16:11:51.727Z,35.66
2023-04-14T16:14:19.215Z,37.50
2023-04-14T16:16:48.219Z,37.05
2023-04-14T16:19:16.525Z,35.47
2023-04-14T16:21:43.987Z,35.84
2023-04-14T16:24:11.560Z,36.01
2023-04-14T16:26:39.229Z,33.78
2023-04-14T16:29:06.831Z,33.82
2023-04-14T16:31:34.382Z,35.27
2023-04-14T16:34:03.962Z,35.04
2023-04-14T16:36:33.240Z,34.73
2023-04-14T16:39:01.174Z,36.64
2023-04-14T16:41:28.840Z,36.10
2023-04-14T16:43:56.301Z,35.92
2023-04-14T16:46:25.011Z,35.78
2023-04-14T16:48:53.198Z,36.71
2023-04-14T16:51:22.713Z,37.62
2023-04-14T16:53:50.439Z,37.86
2023-04-14T16:56:19.425Z,38.70
2023-04-14T16:58:47.390Z,38.39
2023-04-14T17:01:14.880Z,39.26
2023-04-14T17:03:42.611Z,39.97
2023-04-14T17:06:10.364Z,39.09
2023-04-14T17:08:39.562Z,40.20
2023-04-14T17:11:07.109Z,40.61
2023-04-14T17:13:34.778Z,40.71
2023-04-14T17:16:08.913Z,40.01
2023-04-14T17:18:37.077Z,40.29
2023-04-14T17:21:05.677Z,40.09
2023-04-14T17:23:36.005Z,40.96
2023-04-14T17:26:05.617Z,42.13
2023-04-14T17:28:34.746Z,41.74
2023-04-14T17:31:02.565Z,41.45
2023-04-14T17:33:30.232Z,41.54
2023-04-14T17:35:58.172Z,42.26
2023-04-14T17:38:25.679Z,41.72
2023-04-14T17:40:54.552Z,41.82
2023-04-14T17:43:23.440Z,42.36
2023-04-14T17:45:51.406Z,42.76
2023-04-14T17:48:19.402Z,42.53
2023-04-14T17:50:47.588Z,42.82
2023-04-14T17:53:16.180Z,42.63
2023-04-14T17:55:44.757Z,45.04
2023-04-14T17:58:12.255Z,46.28
2023-04-14T18:00:41.412Z,47.91
2023-04-14T18:03:09.120Z,48.33
2023-04-14T18:05:37.273Z,49.12
2023-04-14T18:08:05.033Z,49.75
2023-04-14T18:10:32.641Z,50.60
2023-04-14T18:13:00.845Z,51.06
2023-04-14T18:15:28.293Z,52.41
2023-04-14T18:17:57.371Z,52.81
2023-04-14T18:20:26.340Z,53.38
2023-04-14T18:22:54.586Z,53.67
2023-04-14T18:25:22.119Z,54.84
2023-04-14T18:30:20.049Z,56.28
2023-04-14T18:32:47.647Z,56.10
2023-04-14T18:35:16.624Z,56.49
2023-04-14T18:37:46.232Z,56.63
2023-04-14T18:40:13.937Z,56.33
2023-04-14T18:42:41.393Z,57.02
2023-04-14T18:45:09.772Z,57.65
2023-04-14T18:47:37.330Z,57.74
2023-04-14T18:50:05.404Z,58.78
2023-04-14T18:52:34.187Z,59.53
2023-04-14T18:55:01.722Z,59.77
2023-04-14T18:57:30.651Z,60.14
2023-04-14T18:59:58.409Z,59.93
2023-04-14T19:02:26.095Z,61.56
2023-04-14T19:04:53.817Z,63.15
2023-04-14T19:07:21.269Z,62.12
2023-04-14T19:09:50.506Z,62.83
2023-04-14T19:12:27.700Z,63.09
2023-04-14T19:14:56.260Z,63.72
2023-04-14T19:17:23.869Z,63.81
2023-04-14T19:19:51.455Z,63.79
2023-04-14T19:22:19.048Z,64.11
2023-04-14T19:24:46.630Z,64.70
2023-04-14T19:27:15.508Z,63.30
2023-04-14T19:29:43.005Z,63.96
2023-04-14T19:32:10.467Z,64.50
2023-04-14T19:34:38.045Z,64.98
2023-04-14T19:37:05.551Z,66.15
2023-04-14T19:39:34.335Z,65.94
2023-04-14T19:42:01.848Z,67.05
2023-04-14T19:44:30.745Z,67.22
2023-04-14T19:46:58.404Z,67.65
2023-04-14T19:49:26.167Z,68.34
2023-04-14T19:51:54.298Z,68.35
2023-04-14T19:54:21.767Z,69.17
2023-04-14T19:56:49.247Z,69.46
2023-04-14T19:59:16.716Z,69.85
2023-04-14T20:01:47.439Z,69.34
2023-04-14T20:04:15.141Z,70.65
2023-04-14T20:06:42.892Z,71.18
2023-04-14T20:09:10.815Z,70.30
2023-04-14T20:11:38.461Z,69.99
2023-04-14T20:14:06.034Z,69.63
2023-04-14T20:16:34.705Z,69.77
2023-04-14T20:19:03.964Z,70.57
2023-04-14T20:21:31.669Z,70.92
2023-04-14T20:23:59.328Z,71.29
2023-04-14T20:26:27.417Z,71.91
2023-04-14T20:28:56.094Z,71.93
2023-04-14T20:31:24.309Z,71.86
2023-04-14T20:33:51.847Z,71.23
2023-04-14T20:36:21.433Z,72.13
2023-04-14T20:38:48.878Z,72.79
2023-04-14T20:41:16.378Z,72.92
2023-04-14T20:43:43.902Z,73.20
2023-04-14T20:46:11.551Z,72.63
2023-04-14T20:48:39.087Z,72.84
2023-04-14T20:51:06.584Z,73.93
2023-04-14T20:53:35.851Z,74.81
2023-04-14T20:56:03.344Z,76.17
2023-04-14T20:58:31.464Z,77.13
2023-04-14T21:00:59.177Z,77.32
2023-04-14T21:03:27.795Z,77.06
2023-04-14T21:05:55.776Z,76.93
2023-04-14T21:08:23.228Z,76.26
2023-04-14T21:11:15.767Z,75.49
2023-04-14T21:15:28.493Z,75.79
2023-04-14T21:16:29.231Z,76.33
2023-04-14T21:18:56.791Z,77.56
2023-04-14T21:21:24.408Z,77.63
2023-04-14T21:23:52.087Z,77.54
2023-04-14T21:26:21.900Z,79.44
2023-04-14T21:28:49.367Z,80.03
2023-04-14T21:31:17.427Z,80.35
2023-04-14T21:33:47.748Z,80.61
2023-04-14T21:36:15.604Z,80.01
2023-04-14T21:38:43.374Z,79.31
2023-04-14T21:41:11.019Z,78.76
2023-04-14T21:43:39.835Z,80.38
2023-04-14T21:46:07.982Z,81.72
2023-04-14T21:48:35.591Z,81.07
2023-04-14T21:51:03.895Z,80.42
2023-04-14T21:53:32.052Z,80.13
2023-04-14T21:56:09.806Z,81.06
2023-04-14T21:58:40.154Z,80.80
2023-04-14T22:01:09.402Z,80.84
2023-04-14T22:03:37.851Z,81.59
2023-04-14T22:06:06.109Z,82.57
2023-04-14T22:08:33.557Z,81.71
2023-04-14T22:11:01.558Z,80.81
2023-04-14T22:13:29.014Z,78.74
2023-04-14T22:15:57.992Z,79.72
2023-04-14T22:18:25.441Z,81.24
2023-04-14T22:20:52.886Z,80.47
2023-04-14T22:23:20.871Z,80.31
2023-04-14T22:25:48.310Z,78.92
2023-04-14T22:28:15.797Z,79.74
2023-04-14T22:30:44.088Z,81.06
2023-04-14T22:33:12.970Z,81.11
2023-04-14T22:35:40.702Z,82.33
2023-04-14T22:38:08.189Z,83.45
2023-04-14T22:40:35.894Z,84.63
2023-04-14T22:43:08.468Z,83.46
2023-04-14T22:45:36.854Z,83.88
2023-04-14T22:48:04.618Z,82.59
2023-04-14T22:50:33.708Z,81.81
2023-04-14T22:53:01.828Z,82.14
2023-04-14T22:55:29.335Z,81.98
2023-04-14T22:57:57.063Z,83.22
2023-04-14T23:00:24.578Z,84.29
2023-04-14T23:02:52.860Z,84.22
2023-04-14T23:05:20.803Z,85.26
2023-04-14T23:07:49.712Z,84.49
2023-04-14T23:10:17.180Z,84.36
2023-04-14T23:12:44.628Z,84.96
2023-04-14T23:15:12.262Z,85.15
2023-04-14T23:17:39.795Z,84.85
2023-04-14T23:20:08.787Z,84.95
2023-04-14T23:22:36.306Z,85.36
2023-04-14T23:25:06.077Z,85.55
2023-04-14T23:27:33.565Z,85.17
2023-04-14T23:30:01.236Z,83.92
2023-04-14T23:32:28.776Z,85.80
2023-04-14T23:34:56.329Z,85.99
2023-04-14T23:37:24.018Z,86.01
2023-04-14T23:39:51.511Z,85.39
2023-04-14T23:42:20.553Z,84.78
2023-04-14T23:44:48.061Z,85.83
2023-04-14T23:47:15.552Z,87.10
2023-04-14T23:49:43.112Z,87.61
2023-04-14T23:52:10.846Z,88.89
2023-04-14T23:54:38.323Z,88.88
2023-04-14T23:57:05.815Z,88.59
2023-04-14T23:59:34.654Z,88.34
